createdAt,value
2018-06-21T00:00:04.857Z,99.90
2018-06-21T00:02:33.172Z,99.90
2018-06-21T00:05:02.449Z,99.90
2018-06-21T00:07:30.731Z,99.90
2018-06-21T00:09:59.848Z,99.90
2018-06-21T00:12:28.204Z,99.90
2018-06-21T00:14:56.871Z,99.90
2018-06-21T00:17:25.169Z,99.90
2018-06-21T00:19:53.448Z,99.90
2018-06-21T00:22:22.413Z,99.90
2018-06-21T00:24:50.909Z,99.90
2018-06-21T00:27:22.080Z,99.90
2018-06-21T00:29:51.407Z,99.90
2018-06-21T00:32:19.945Z,99.90
2018-06-21T00:34:49.372Z,99.90
2018-06-21T00:37:17.696Z,99.90
2018-06-21T00:39:46.356Z,99.90
2018-06-21T00:42:14.613Z,99.90
2018-06-21T00:44:44.015Z,99.90
2018-06-21T00:47:12.307Z,99.90
2018-06-21T00:49:40.587Z,99.90
2018-06-21T00:52:08.877Z,99.90
2018-06-21T00:54:37.151Z,99.90
2018-06-21T00:57:05.700Z,99.90
2018-06-21T00:59:33.964Z,99.90
2018-06-21T01:02:02.810Z,99.90
2018-06-21T01:04:31.099Z,99.90
2018-06-21T01:07:00.132Z,99.90
2018-06-21T01:09:29.548Z,99.90
2018-06-21T01:11:57.814Z,99.90
2018-06-21T01:14:26.115Z,99.90
2018-06-21T01:16:54.415Z,99.90
2018-06-21T01:19:22.686Z,99.90
2018-06-21T01:21:50.930Z,99.90
2018-06-21T01:24:19.187Z,99.90
2018-06-21T01:26:47.970Z,99.90
2018-06-21T01:29:17.096Z,99.90
2018-06-21T01:31:45.337Z,99.90
2018-06-21T01:34:14.195Z,99.90
2018-06-21T01:36:42.534Z,99.90
2018-06-21T01:39:11.073Z,99.90
2018-06-21T01:41:40.632Z,99.90
2018-06-21T01:44:09.142Z,99.90
2018-06-21T01:46:37.383Z,99.90
2018-06-21T01:49:06.436Z,99.90
2018-06-21T01:51:35.511Z,99.90
2018-06-21T01:54:03.777Z,99.90
2018-06-21T01:56:32.984Z,99.90
2018-06-21T01:59:01.291Z,99.90
2018-06-21T02:01:29.540Z,99.90
2018-06-21T02:03:57.835Z,99.90
2018-06-21T02:06:26.216Z,99.90
2018-06-21T02:08:55.642Z,99.90
2018-06-21T02:11:23.900Z,99.90
2018-06-21T02:13:53.167Z,99.90
2018-06-21T02:16:21.407Z,99.90
2018-06-21T02:18:49.702Z,99.90
2018-06-21T02:21:18.027Z,99.90
2018-06-21T02:23:46.278Z,99.90
2018-06-21T02:26:14.611Z,99.90
2018-06-21T02:28:42.891Z,99.90
2018-06-21T02:31:11.113Z,99.90
2018-06-21T02:33:39.350Z,99.90
2018-06-21T02:36:07.622Z,99.90
2018-06-21T02:38:35.869Z,99.90
2018-06-21T02:41:04.079Z,99.90
2018-06-21T02:43:32.273Z,99.90
2018-06-21T02:46:01.627Z,99.90
2018-06-21T02:48:29.915Z,99.90
2018-06-21T02:50:58.183Z,99.90
2018-06-21T02:53:26.936Z,99.90
2018-06-21T02:55:55.531Z,99.90
2018-06-21T02:58:23.823Z,99.90
2018-06-21T03:00:52.079Z,99.90
2018-06-21T03:03:20.339Z,99.90
2018-06-21T03:05:48.610Z,99.90
2018-06-21T03:08:17.833Z,99.90
2018-06-21T03:10:46.096Z,99.90
2018-06-21T03:13:14.683Z,99.90
2018-06-21T03:15:42.953Z,99.90
2018-06-21T03:18:11.247Z,99.90
2018-06-21T03:20:39.862Z,99.90
2018-06-21T03:23:09.075Z,99.90
2018-06-21T03:25:37.658Z,99.90
2018-06-21T03:28:06.595Z,99.90
2018-06-21T03:30:35.061Z,99.90
2018-06-21T03:33:04.273Z,99.90
2018-06-21T03:35:32.535Z,99.90
2018-06-21T03:38:00.906Z,99.90
2018-06-21T03:40:29.511Z,99.90
2018-06-21T03:42:57.972Z,99.90
2018-06-21T03:45:26.194Z,99.90
2018-06-21T03:47:54.710Z,99.90
2018-06-21T03:50:22.997Z,99.90
2018-06-21T03:52:51.259Z,99.90
2018-06-21T03:55:20.977Z,99.90
2018-06-21T03:57:49.235Z,99.90
2018-06-21T04:00:17.816Z,99.90
2018-06-21T04:05:14.027Z,99.90
2018-06-21T04:07:42.264Z,99.90
2018-06-21T04:10:10.535Z,99.90
2018-06-21T04:12:38.739Z,99.90
2018-06-21T04:15:07.503Z,99.90
2018-06-21T04:17:35.780Z,99.90
2018-06-21T04:20:04.096Z,99.90
2018-06-21T04:22:32.381Z,99.90
2018-06-21T04:25:01.603Z,99.90
2018-06-21T04:27:31.043Z,99.90
2018-06-21T04:29:59.256Z,99.90
2018-06-21T04:32:27.544Z,99.90
2018-06-21T04:34:58.975Z,99.90
2018-06-21T04:37:27.790Z,99.90
2018-06-21T04:39:56.404Z,99.90
2018-06-21T04:42:24.636Z,99.90
2018-06-21T04:44:53.459Z,99.90
2018-06-21T04:47:21.688Z,99.90
2018-06-21T04:49:49.981Z,99.90
2018-06-21T04:52:18.744Z,99.90
2018-06-21T04:54:47.421Z,99.90
2018-06-21T04:57:15.643Z,99.90
2018-06-21T04:59:44.591Z,99.90
2018-06-21T05:02:12.883Z,99.90
2018-06-21T05:04:41.186Z,99.90
2018-06-21T05:07:09.704Z,99.90
2018-06-21T05:09:38.955Z,99.90
2018-06-21T05:12:07.194Z,99.90
2018-06-21T05:14:36.474Z,99.90
2018-06-21T05:17:05.564Z,99.90
2018-06-21T05:19:33.902Z,99.90
2018-06-21T05:22:02.118Z,99.90
2018-06-21T05:24:30.370Z,99.90
2018-06-21T05:26:58.652Z,99.90
2018-06-21T05:29:26.848Z,99.90
2018-06-21T05:31:55.245Z,99.90
2018-06-21T05:34:23.874Z,99.90
2018-06-21T05:36:53.010Z,99.90
2018-06-21T05:39:21.498Z,99.90
2018-06-21T05:41:49.726Z,99.90
2018-06-21T05:44:17.990Z,99.90
2018-06-21T05:46:47.326Z,99.90
2018-06-21T05:49:15.554Z,99.90
2018-06-21T05:51:43.751Z,99.90
2018-06-21T05:54:12.974Z,99.90
2018-06-21T05:56:41.173Z,99.90
2018-06-21T05:59:09.373Z,99.90
2018-06-21T06:01:38.198Z,99.90
2018-06-21T06:04:07.981Z,99.90
2018-06-21T06:06:36.489Z,99.90
2018-06-21T06:09:07.970Z,99.90
2018-06-21T06:11:36.173Z,99.90
2018-06-21T06:14:05.169Z,99.90
2018-06-21T06:16:34.125Z,99.90
2018-06-21T06:19:02.434Z,99.90
2018-06-21T06:21:31.638Z,99.90
2018-06-21T06:23:59.887Z,99.90
2018-06-21T06:26:28.074Z,99.90
2018-06-21T06:28:56.339Z,99.90
2018-06-21T06:31:24.573Z,99.90
2018-06-21T06:33:52.745Z,99.90
2018-06-21T06:36:21.247Z,99.90
2018-06-21T06:38:49.981Z,99.90
2018-06-21T06:41:18.586Z,99.90
2018-06-21T06:43:46.766Z,99.90
2018-06-21T06:46:15.038Z,99.90
2018-06-21T06:48:43.502Z,99.90
2018-06-21T06:51:11.746Z,99.90
2018-06-21T06:53:39.930Z,99.90
2018-06-21T06:56:08.162Z,99.90
2018-06-21T06:58:36.382Z,99.90
2018-06-21T07:01:04.554Z,99.90
2018-06-21T07:03:32.777Z,99.90
2018-06-21T07:06:01.014Z,99.90
2018-06-21T07:08:29.262Z,99.90
2018-06-21T07:10:57.562Z,99.90
2018-06-21T07:13:26.331Z,99.90
2018-06-21T07:15:54.833Z,99.90
2018-06-21T07:18:23.018Z,99.90
2018-06-21T07:20:51.199Z,99.90
2018-06-21T07:23:19.458Z,99.90
2018-06-21T07:25:47.703Z,99.90
2018-06-21T07:28:15.902Z,99.90
2018-06-21T07:30:44.091Z,99.90
2018-06-21T07:33:12.678Z,99.90
2018-06-21T07:35:41.773Z,99.90
2018-06-21T07:38:09.965Z,99.90
2018-06-21T07:40:38.369Z,99.90
2018-06-21T07:43:06.546Z,99.90
2018-06-21T07:45:34.755Z,99.90
2018-06-21T07:48:04.738Z,99.90
2018-06-21T07:50:32.950Z,99.90
2018-06-21T07:53:01.526Z,99.90
2018-06-21T07:55:29.829Z,99.90
2018-06-21T07:57:58.126Z,99.90
2018-06-21T08:00:26.374Z,99.90
2018-06-21T08:02:54.677Z,99.90
2018-06-21T08:05:22.846Z,99.90
2018-06-21T08:10:19.011Z,99.90
2018-06-21T08:12:47.225Z,99.90
2018-06-21T08:15:15.442Z,99.90
2018-06-21T08:20:12.999Z,99.90
2018-06-21T08:22:41.873Z,99.90
2018-06-21T08:25:10.723Z,99.90
2018-06-21T08:27:39.536Z,99.90
2018-06-21T08:30:07.766Z,99.90
2018-06-21T08:32:35.958Z,99.90
2018-06-21T08:35:04.614Z,99.90
2018-06-21T08:37:32.786Z,99.90
2018-06-21T08:40:01.946Z,99.90
2018-06-21T08:42:30.157Z,99.90
2018-06-21T08:44:58.332Z,99.90
2018-06-21T08:47:26.539Z,99.90
2018-06-21T08:49:55.167Z,99.90
2018-06-21T08:52:23.387Z,99.90
2018-06-21T08:54:51.645Z,99.90
2018-06-21T08:57:20.139Z,99.90
2018-06-21T08:59:49.333Z,99.90
2018-06-21T09:02:17.573Z,99.90
2018-06-21T09:04:47.393Z,99.90
2018-06-21T09:07:15.554Z,99.90
2018-06-21T09:09:43.896Z,99.90
2018-06-21T09:12:12.690Z,99.90
2018-06-21T09:14:40.957Z,99.90
2018-06-21T09:17:09.177Z,99.90
2018-06-21T09:19:37.669Z,99.90
2018-06-21T09:22:05.894Z,99.90
2018-06-21T09:24:34.125Z,99.90
2018-06-21T09:27:02.933Z,99.90
2018-06-21T09:29:31.408Z,99.90
2018-06-21T09:32:00.602Z,99.90
2018-06-21T09:36:58.158Z,99.90
2018-06-21T09:39:31.816Z,99.90
2018-06-21T09:42:05.558Z,99.90
2018-06-21T09:44:35.153Z,99.90
2018-06-21T09:47:09.306Z,99.90
2018-06-21T09:49:37.542Z,99.90
2018-06-21T09:52:06.597Z,99.90
2018-06-21T09:54:34.902Z,99.90
2018-06-21T09:57:03.891Z,99.90
2018-06-21T09:59:32.138Z,99.90
2018-06-21T10:02:00.867Z,99.90
2018-06-21T10:04:29.065Z,99.90
2018-06-21T10:06:57.596Z,99.90
2018-06-21T10:09:27.399Z,99.90
2018-06-21T10:11:55.963Z,99.90
2018-06-21T10:14:24.162Z,99.90
2018-06-21T10:16:52.618Z,99.90
2018-06-21T10:19:20.893Z,99.90
2018-06-21T10:21:49.152Z,99.90
2018-06-21T10:24:17.353Z,99.90
2018-06-21T10:26:45.590Z,99.90
2018-06-21T10:29:14.670Z,99.90
2018-06-21T10:31:43.906Z,99.90
2018-06-21T10:34:12.155Z,99.90
2018-06-21T10:36:40.389Z,99.90
2018-06-21T10:39:10.096Z,99.90
2018-06-21T10:41:38.314Z,99.90
2018-06-21T10:44:06.498Z,99.90
2018-06-21T10:46:34.669Z,99.90
2018-06-21T10:49:03.297Z,99.90
2018-06-21T10:51:31.517Z,99.90
2018-06-21T10:53:59.748Z,99.90
2018-06-21T10:56:28.250Z,99.90
2018-06-21T10:58:56.461Z,99.90
2018-06-21T11:01:25.562Z,99.90
2018-06-21T11:03:53.804Z,99.90
2018-06-21T11:06:22.063Z,99.90
2018-06-21T11:08:50.546Z,99.90
2018-06-21T11:11:18.805Z,99.90
2018-06-21T11:13:47.045Z,99.90
2018-06-21T11:16:15.305Z,99.90
2018-06-21T11:18:43.479Z,99.90
2018-06-21T11:21:11.664Z,99.90
2018-06-21T11:23:39.870Z,99.90
2018-06-21T11:26:08.093Z,99.90
2018-06-21T11:28:36.302Z,99.90
2018-06-21T11:31:04.546Z,99.90
2018-06-21T11:33:32.730Z,99.90
2018-06-21T11:36:00.977Z,99.90
2018-06-21T11:38:29.193Z,99.90
2018-06-21T11:40:57.674Z,99.90
2018-06-21T11:43:26.389Z,99.90
2018-06-21T11:45:55.518Z,99.90
2018-06-21T11:48:23.750Z,99.90
2018-06-21T11:50:52.262Z,99.90
2018-06-21T11:53:21.815Z,99.90
2018-06-21T11:55:50.041Z,99.90
2018-06-21T11:58:19.182Z,99.90
2018-06-21T12:00:47.393Z,99.90
2018-06-21T12:03:16.200Z,99.90
2018-06-21T12:05:44.409Z,99.90
2018-06-21T12:08:12.625Z,99.90
2018-06-21T12:10:40.838Z,99.90
2018-06-21T12:13:09.009Z,99.90
2018-06-21T12:15:38.710Z,99.40
2018-06-21T12:18:06.963Z,98.70
2018-06-21T12:20:35.178Z,96.30
2018-06-21T12:23:04.180Z,96.00
2018-06-21T12:25:32.423Z,95.70
2018-06-21T12:28:01.789Z,96.40
2018-06-21T12:30:30.007Z,95.40
2018-06-21T12:32:58.221Z,93.70
2018-06-21T12:35:26.458Z,93.80
2018-06-21T12:37:54.645Z,93.80
2018-06-21T12:40:22.914Z,93.40
2018-06-21T12:42:51.113Z,93.10
2018-06-21T12:45:19.338Z,92.80
2018-06-21T12:47:47.550Z,91.70
2018-06-21T12:50:15.814Z,91.30
2018-06-21T12:52:44.075Z,89.70
2018-06-21T12:55:12.252Z,90.00
2018-06-21T12:57:41.014Z,90.40
2018-06-21T13:00:10.501Z,91.20
2018-06-21T13:02:38.750Z,89.50
2018-06-21T13:05:06.950Z,90.30
2018-06-21T13:07:35.151Z,90.50
2018-06-21T13:10:14.736Z,91.60
2018-06-21T13:12:58.674Z,91.30
2018-06-21T13:15:27.445Z,91.00
2018-06-21T13:17:55.613Z,90.80
2018-06-21T13:20:23.789Z,88.70
2018-06-21T13:22:52.566Z,88.70
2018-06-21T13:25:22.728Z,86.90
2018-06-21T13:27:50.958Z,81.40
2018-06-21T13:30:20.933Z,82.00
2018-06-21T13:32:50.217Z,82.10
2018-06-21T13:35:19.544Z,85.50
2018-06-21T13:37:47.793Z,86.10
2018-06-21T13:40:16.054Z,84.40
2018-06-21T13:42:46.352Z,83.70
2018-06-21T13:45:14.594Z,83.60
2018-06-21T13:47:42.811Z,84.80
2018-06-21T13:50:11.005Z,82.80
2018-06-21T13:52:39.260Z,82.70
2018-06-21T13:55:08.270Z,80.90
2018-06-21T13:57:36.501Z,81.50
2018-06-21T14:00:05.237Z,80.80
2018-06-21T14:02:33.418Z,79.40
2018-06-21T14:05:03.587Z,79.80
2018-06-21T14:07:31.824Z,79.80
2018-06-21T14:10:01.478Z,77.40
2018-06-21T14:12:30.040Z,76.80
2018-06-21T14:14:58.785Z,77.30
2018-06-21T14:17:27.506Z,73.20
2018-06-21T14:19:55.714Z,72.10
2018-06-21T14:22:23.938Z,72.90
2018-06-21T14:24:53.206Z,74.50
2018-06-21T14:27:21.402Z,74.00
2018-06-21T14:29:49.637Z,73.50
2018-06-21T14:32:17.903Z,73.00
2018-06-21T14:34:46.082Z,71.60
2018-06-21T14:37:14.413Z,69.90
2018-06-21T14:39:43.297Z,70.00
2018-06-21T14:42:11.504Z,71.60
2018-06-21T14:44:39.997Z,73.30
2018-06-21T14:47:09.050Z,71.80
2018-06-21T14:49:37.845Z,71.60
2018-06-21T14:52:07.559Z,72.10
2018-06-21T14:54:35.738Z,73.90
2018-06-21T14:57:03.984Z,73.40
2018-06-21T14:59:32.154Z,72.10
2018-06-21T15:02:00.402Z,71.60
2018-06-21T15:04:28.686Z,71.50
2018-06-21T15:06:56.890Z,72.10
2018-06-21T15:09:25.098Z,71.50
2018-06-21T15:11:53.329Z,71.80
2018-06-21T15:14:23.059Z,70.80
2018-06-21T15:16:51.769Z,70.50
2018-06-21T15:19:20.043Z,69.70
2018-06-21T15:21:48.285Z,69.40
2018-06-21T15:24:16.510Z,68.60
2018-06-21T15:26:44.718Z,68.40
2018-06-21T15:29:12.922Z,69.10
2018-06-21T15:31:41.384Z,69.30
2018-06-21T15:34:09.561Z,68.30
2018-06-21T15:36:38.729Z,68.40
2018-06-21T15:39:20.539Z,68.10
2018-06-21T15:41:48.745Z,68.90
2018-06-21T15:44:18.287Z,69.70
2018-06-21T15:46:46.513Z,67.80
2018-06-21T15:49:15.405Z,67.90
2018-06-21T15:51:44.377Z,68.00
2018-06-21T15:54:12.623Z,67.20
2018-06-21T15:56:40.838Z,67.80
2018-06-21T15:59:09.466Z,68.10
2018-06-21T16:01:38.210Z,66.40
2018-06-21T16:04:06.991Z,66.30
2018-06-21T16:06:36.221Z,67.90
2018-06-21T16:09:07.997Z,68.00
2018-06-21T16:11:36.241Z,68.20
2018-06-21T16:14:04.503Z,68.30
2018-06-21T16:16:33.070Z,68.80
2018-06-21T16:19:01.313Z,70.10
2018-06-21T16:21:29.562Z,69.60
2018-06-21T16:23:57.912Z,70.60
2018-06-21T16:26:26.150Z,69.50
2018-06-21T16:28:54.377Z,69.80
2018-06-21T16:31:24.726Z,70.40
2018-06-21T16:33:53.434Z,69.00
2018-06-21T16:36:21.673Z,70.30
2018-06-21T16:38:50.802Z,71.40
2018-06-21T16:41:18.977Z,71.40
2018-06-21T16:43:47.193Z,72.00
2018-06-21T16:46:16.215Z,71.40
2018-06-21T16:48:44.482Z,71.30
2018-06-21T16:51:12.703Z,71.90
2018-06-21T16:53:40.914Z,70.30
2018-06-21T16:56:09.169Z,71.30
2018-06-21T16:58:37.354Z,71.40
2018-06-21T17:01:05.986Z,70.60
2018-06-21T17:03:34.201Z,71.90
2018-06-21T17:06:02.689Z,73.00
2018-06-21T17:08:31.177Z,74.00
2018-06-21T17:10:59.429Z,74.90
2018-06-21T17:13:28.237Z,73.80
2018-06-21T17:15:56.958Z,74.70
2018-06-21T17:18:25.195Z,74.40
2018-06-21T17:20:53.459Z,74.80
2018-06-21T17:25:49.598Z,75.80
2018-06-21T17:28:17.800Z,75.70
2018-06-21T17:30:46.006Z,75.80
2018-06-21T17:33:14.614Z,75.80
2018-06-21T17:35:42.837Z,74.90
2018-06-21T17:38:11.138Z,75.40
2018-06-21T17:40:39.528Z,75.80
2018-06-21T17:43:07.729Z,75.60
2018-06-21T17:48:04.231Z,76.30
2018-06-21T17:50:32.496Z,76.00
2018-06-21T17:53:02.565Z,76.80
2018-06-21T17:55:31.374Z,76.50
2018-06-21T17:58:00.621Z,77.10
2018-06-21T18:00:28.833Z,77.30
2018-06-21T18:05:26.401Z,77.90
2018-06-21T18:07:55.592Z,78.40
2018-06-21T18:10:24.178Z,78.10
2018-06-21T18:12:52.432Z,78.70
2018-06-21T18:15:20.690Z,79.00
2018-06-21T18:17:49.900Z,79.50
2018-06-21T18:20:18.186Z,80.10
2018-06-21T18:22:46.749Z,79.50
2018-06-21T18:25:14.922Z,80.40
2018-06-21T18:27:43.202Z,80.20
2018-06-21T18:30:12.495Z,80.80
2018-06-21T18:32:41.376Z,81.30
2018-06-21T18:35:09.610Z,81.80
2018-06-21T18:37:37.825Z,82.30
2018-06-21T18:40:06.096Z,82.30
2018-06-21T18:42:34.326Z,82.90
2018-06-21T18:45:02.649Z,83.50
2018-06-21T18:47:31.752Z,84.20
2018-06-21T18:49:59.937Z,84.90
2018-06-21T18:52:28.152Z,85.40
2018-06-21T18:54:56.360Z,86.00
2018-06-21T18:57:24.601Z,86.60
2018-06-21T18:59:52.869Z,86.20
2018-06-21T19:02:21.101Z,86.40
2018-06-21T19:04:49.330Z,86.70
2018-06-21T19:07:22.917Z,86.70
2018-06-21T19:09:56.447Z,86.30
2018-06-21T19:12:24.677Z,84.80
2018-06-21T19:14:52.958Z,85.50
2018-06-21T19:17:21.229Z,86.00
2018-06-21T19:19:49.468Z,86.40
2018-06-21T19:22:17.684Z,86.70
2018-06-21T19:24:45.891Z,87.30
2018-06-21T19:27:14.401Z,87.60
2018-06-21T19:29:42.634Z,87.50
2018-06-21T19:32:10.793Z,87.40
2018-06-21T19:34:39.033Z,87.90
2018-06-21T19:37:07.633Z,88.40
2018-06-21T19:39:35.870Z,88.70
2018-06-21T19:42:04.102Z,89.20
2018-06-21T19:44:32.328Z,89.90
2018-06-21T19:47:01.858Z,90.20
2018-06-21T19:49:30.575Z,90.30
2018-06-21T19:51:58.810Z,90.60
2018-06-21T19:54:27.017Z,90.80
2018-06-21T19:56:55.270Z,91.00
2018-06-21T19:59:25.353Z,91.40
2018-06-21T20:01:53.593Z,91.50
2018-06-21T20:04:21.837Z,91.60
2018-06-21T20:06:50.217Z,91.80
2018-06-21T20:09:18.421Z,91.90
2018-06-21T20:11:47.246Z,92.10
2018-06-21T20:14:15.453Z,92.10
2018-06-21T20:16:43.665Z,92.40
2018-06-21T20:19:15.198Z,92.60
2018-06-21T20:21:44.133Z,92.70
2018-06-21T20:24:12.417Z,92.90
2018-06-21T20:26:40.690Z,93.20
2018-06-21T20:29:14.917Z,93.50
2018-06-21T20:31:43.144Z,93.70
2018-06-21T20:34:11.366Z,93.80
2018-06-21T20:36:39.605Z,94.40
2018-06-21T20:39:09.061Z,94.70
2018-06-21T20:41:38.550Z,95.00
2018-06-21T20:44:07.681Z,95.20
2018-06-21T20:46:36.253Z,95.60
2018-06-21T20:49:04.489Z,95.70
2018-06-21T20:51:33.113Z,96.00
2018-06-21T20:54:01.682Z,96.40
2018-06-21T20:56:29.933Z,96.70
2018-06-21T20:58:58.565Z,97.00
2018-06-21T21:01:27.758Z,97.20
2018-06-21T21:03:55.912Z,97.50
2018-06-21T21:06:24.097Z,97.80
2018-06-21T21:08:52.281Z,98.30
2018-06-21T21:11:20.777Z,98.40
2018-06-21T21:13:48.972Z,98.70
2018-06-21T21:16:17.229Z,99.10
2018-06-21T21:18:45.373Z,99.70
2018-06-21T21:21:13.604Z,99.80
2018-06-21T21:26:10.586Z,99.90
2018-06-21T21:28:39.689Z,99.90
2018-06-21T21:31:07.905Z,99.90
2018-06-21T21:33:37.074Z,99.90
2018-06-21T21:36:05.288Z,99.90
2018-06-21T21:38:33.473Z,99.90
2018-06-21T21:41:03.134Z,99.90
2018-06-21T21:43:31.301Z,99.90
2018-06-21T21:45:59.949Z,99.90
2018-06-21T21:48:29.017Z,99.90
2018-06-21T21:50:57.269Z,99.90
2018-06-21T21:53:25.499Z,99.90
2018-06-21T21:55:53.718Z,99.90
2018-06-21T21:58:21.878Z,99.90
2018-06-21T22:00:54.185Z,99.90
2018-06-21T22:03:22.627Z,99.90
2018-06-21T22:05:51.228Z,99.90
2018-06-21T22:08:19.464Z,99.90
2018-06-21T22:13:18.021Z,99.90
2018-06-21T22:18:14.412Z,99.90
2018-06-21T22:23:10.697Z,99.90
2018-06-21T22:25:38.906Z,99.90
2018-06-21T22:28:07.182Z,99.90
2018-06-21T22:30:35.397Z,99.90
2018-06-21T22:33:03.615Z,99.90
2018-06-21T22:35:33.497Z,99.90
2018-06-21T22:38:01.682Z,99.90
2018-06-21T22:40:30.633Z,99.90
2018-06-21T22:45:27.225Z,99.90
2018-06-21T22:47:55.899Z,99.90
2018-06-21T22:50:24.959Z,99.90
2018-06-21T22:52:54.118Z,99.90
2018-06-21T22:55:22.397Z,99.90
2018-06-21T22:57:50.577Z,99.90
2018-06-21T23:00:20.106Z,99.90
2018-06-21T23:02:48.329Z,99.90
2018-06-21T23:05:16.524Z,99.90
2018-06-21T23:07:44.738Z,99.90
2018-06-21T23:12:41.511Z,99.90
2018-06-21T23:15:10.698Z,99.90
2018-06-21T23:17:38.890Z,99.90
2018-06-21T23:20:08.556Z,99.90
2018-06-21T23:22:36.777Z,99.90
2018-06-21T23:25:06.821Z,99.90
2018-06-21T23:27:35.022Z,99.90
2018-06-21T23:30:03.465Z,99.90
2018-06-21T23:32:31.637Z,99.90
2018-06-21T23:35:00.328Z,99.90
2018-06-21T23:37:28.561Z,99.90
2018-06-21T23:39:57.293Z,99.90
2018-06-21T23:42:25.509Z,99.90
2018-06-21T23:44:53.719Z,99.90
2018-06-21T23:47:22.637Z,99.90
2018-06-21T23:49:51.368Z,99.90
2018-06-21T23:54:47.554Z,99.90
2018-06-21T23:57:15.794Z,99.90
